Mount Sterling, WI (54645)

9:11 PM CDT on July 29, 2016 (GMT -0500)
Soldiers Grove area (hilltop) | | Change Station

Elev 1132 ft 43.42 °N, 90.86 °W | Updated 2 seconds ago

Mostly Cloudy
Mostly Cloudy
67.0 °F
Feels Like 67.0 °F
N
3.0
Wind Variable Wind from NNW
Gusts 0.0 mph

Today
High -- | Low -- °F
--% Chance of Precip.
Yesterday
High -- | Low -- °F
Precip. -- in
Pressure 30.00 in
Visibility 7.0 miles
Clouds Mostly Cloudy 12000 ft
Dew Point 65 °F
Humidity 93%
Rainfall 0.72 in
Snow Depth Not available.
5:51 AM 8:28 PM
Waning Crescent, 17% visible
METAR KOVS 300153Z AUTO 00000KT 7SM BKN120 20/19 A3001 RMK AO2 SLP159 T02000189
Pressure 30.00 in
Visibility 7.0 miles
Clouds Mostly Cloudy 12000 ft
Dew Point 65 °F
Humidity 93%
Rainfall 0.72 in
Snow Depth Not available.
5:51 AM 8:28 PM
Waning Crescent, 17% visible
METAR KOVS 300153Z AUTO 00000KT 7SM BKN120 20/19 A3001 RMK AO2 SLP159 T02000189

10-Day Weather Forecast

Almanac

Astronomy

Jul. 29, 2016 Rise Set
Actual Time
Civil Twilight
Nautical Twilight
Astronomical Twilight
Moon
Length of Visible Light
Length of Day
Tomorrow will be .
, % of the Moon is Illuminated

Today's Extremes

State Highs State Lows

Community

WunderPhotos

Upload Photos

1,928,481 photos uploaded!

WunderBlog® & News

Nearby

Air Quality

  Air Quality AQ Index Pollutant
Not available.

Snow Depth

Station Depth Elevation

Earthquake Activity

City Distance Mag. Time & Date
Minimum magnitude displayed is 2.5.

Coastal Water Temperatures

Place Temperature

Stations

Nearby Weather Stations

Station Location Temp. Windchill Dew Point Humidity Wind Precip. Elev Updated Type
                   

Watches & Warnings

There are currently no watches in effect.